aviador You're here:

PAFS Decoded Metar

NIKOLAI in AK, USA
Report Time2017-04-29 17:01:00
UTC Time2017-04-29 17:46:58
Flight Rules vfr VFR
WindCalm
Visibility9999 m
Phenomena:N/A
Clouds:N/A
Expected CloudBase > 800 ft AGL from Temp-Dew spread
CeilingNone
Temp03°C (ISA -11)
Dew Point01°C (87% RH)
AAT1.2°C
QNH1016 hPa
Density Alt-955 ft
Elevation413 ft
Report Wrong Elevation
Raw Report
PAFS 291701Z AUTO 00000KT 10SM CLR 03/01 A3001=

Extra information for PAFS:More info

Metar Taf Metar & Taf Last 4 Metars F.Rules Stats Wind Profile Meteogram Temp Stats Airport Information Weather charts Add Link Nearby VenuesMetar ALERT Operation Metar Decoded Social comments

AIRNAV info for PAFS